sensor_id;sensor_type;location;lat;lon;timestamp;P1;durP1;ratioP1;P2;durP2;ratioP2
17727;SDS011;8984;49.268;12.302;2024-01-06T00:02:07;9.27;;;7.47;;
17727;SDS011;8984;49.268;12.302;2024-01-06T00:04:42;8.63;;;7.43;;
17727;SDS011;8984;49.268;12.302;2024-01-06T00:07:15;10.33;;;7.97;;
17727;SDS011;8984;49.268;12.302;2024-01-06T00:10:20;10.87;;;7.37;;
17727;SDS011;8984;49.268;12.302;2024-01-06T00:12:48;11.13;;;7.20;;
17727;SDS011;8984;49.268;12.302;2024-01-06T00:15:35;10.00;;;7.13;;
17727;SDS011;8984;49.268;12.302;2024-01-06T00:18:15;10.90;;;7.60;;
17727;SDS011;8984;49.268;12.302;2024-01-06T00:21:06;9.00;;;6.83;;
17727;SDS011;8984;49.268;12.302;2024-01-06T00:23:36;10.53;;;7.30;;
17727;SDS011;8984;49.268;12.302;2024-01-06T00:26:14;10.50;;;7.20;;
17727;SDS011;8984;49.268;12.302;2024-01-06T00:28:41;9.67;;;7.33;;
17727;SDS011;8984;49.268;12.302;2024-01-06T00:31:14;8.93;;;6.70;;
17727;SDS011;8984;49.268;12.302;2024-01-06T00:33:48;10.50;;;7.67;;
17727;SDS011;8984;49.268;12.302;2024-01-06T00:36:29;9.27;;;7.10;;
17727;SDS011;8984;49.268;12.302;2024-01-06T00:38:58;11.90;;;7.93;;
17727;SDS011;8984;49.268;12.302;2024-01-06T00:41:29;9.30;;;7.20;;
17727;SDS011;8984;49.268;12.302;2024-01-06T00:43:58;10.40;;;7.40;;
17727;SDS011;8984;49.268;12.302;2024-01-06T00:46:33;10.73;;;7.50;;
17727;SDS011;8984;49.268;12.302;2024-01-06T00:49:01;9.70;;;7.53;;
17727;SDS011;8984;49.268;12.302;2024-01-06T00:51:42;10.23;;;7.40;;
17727;SDS011;8984;49.268;12.302;2024-01-06T00:54:10;10.67;;;7.70;;
17727;SDS011;8984;49.268;12.302;2024-01-06T00:56:38;10.83;;;7.27;;
17727;SDS011;8984;49.268;12.302;2024-01-06T00:59:07;9.53;;;6.63;;
17727;SDS011;8984;49.268;12.302;2024-01-06T01:01:36;11.43;;;7.37;;
17727;SDS011;8984;49.268;12.302;2024-01-06T01:04:10;13.80;;;7.77;;
17727;SDS011;8984;49.268;12.302;2024-01-06T01:06:42;10.57;;;6.77;;
17727;SDS011;8984;49.268;12.302;2024-01-06T01:09:26;10.43;;;7.90;;
17727;SDS011;8984;49.268;12.302;2024-01-06T01:11:55;7.70;;;6.33;;
17727;SDS011;8984;49.268;12.302;2024-01-06T01:14:22;9.80;;;7.10;;
17727;SDS011;8984;49.268;12.302;2024-01-06T01:17:03;10.33;;;8.10;;
17727;SDS011;8984;49.268;12.302;2024-01-06T01:19:41;8.67;;;6.73;;
17727;SDS011;8984;49.268;12.302;2024-01-06T01:22:15;9.90;;;6.83;;
17727;SDS011;8984;49.268;12.302;2024-01-06T01:24:43;15.27;;;10.23;;
17727;SDS011;8984;49.268;12.302;2024-01-06T01:27:12;10.13;;;8.07;;
17727;SDS011;8984;49.268;12.302;2024-01-06T01:29:44;10.07;;;6.97;;
17727;SDS011;8984;49.268;12.302;2024-01-06T01:32:18;13.10;;;7.47;;
17727;SDS011;8984;49.268;12.302;2024-01-06T01:34:56;12.13;;;7.43;;
17727;SDS011;8984;49.268;12.302;2024-01-06T01:37:29;11.90;;;7.93;;
17727;SDS011;8984;49.268;12.302;2024-01-06T01:40:01;10.90;;;7.50;;
17727;SDS011;8984;49.268;12.302;2024-01-06T01:42:28;10.87;;;8.07;;
17727;SDS011;8984;49.268;12.302;2024-01-06T01:45:00;9.50;;;7.27;;
17727;SDS011;8984;49.268;12.302;2024-01-06T01:47:33;10.70;;;6.87;;
17727;SDS011;8984;49.268;12.302;2024-01-06T01:50:01;10.20;;;8.20;;
17727;SDS011;8984;49.268;12.302;2024-01-06T01:52:41;9.73;;;7.43;;
17727;SDS011;8984;49.268;12.302;2024-01-06T01:55:09;16.33;;;7.53;;
17727;SDS011;8984;49.268;12.302;2024-01-06T01:57:47;14.80;;;9.90;;
17727;SDS011;8984;49.268;12.302;2024-01-06T02:00:16;10.37;;;7.60;;
17727;SDS011;8984;49.268;12.302;2024-01-06T02:02:51;11.03;;;8.17;;
17727;SDS011;8984;49.268;12.302;2024-01-06T02:05:20;11.73;;;8.73;;
17727;SDS011;8984;49.268;12.302;2024-01-06T02:07:59;11.47;;;8.53;;
17727;SDS011;8984;49.268;12.302;2024-01-06T02:10:27;14.93;;;8.10;;
17727;SDS011;8984;49.268;12.302;2024-01-06T02:13:06;10.30;;;6.90;;
17727;SDS011;8984;49.268;12.302;2024-01-06T02:15:47;8.47;;;6.63;;
17727;SDS011;8984;49.268;12.302;2024-01-06T02:18:34;10.30;;;6.47;;
17727;SDS011;8984;49.268;12.302;2024-01-06T02:21:05;7.97;;;5.77;;
17727;SDS011;8984;49.268;12.302;2024-01-06T02:23:43;8.33;;;6.43;;
17727;SDS011;8984;49.268;12.302;2024-01-06T02:26:12;9.40;;;7.77;;
17727;SDS011;8984;49.268;12.302;2024-01-06T02:28:47;7.37;;;6.60;;
17727;SDS011;8984;49.268;12.302;2024-01-06T02:31:24;8.73;;;6.10;;
17727;SDS011;8984;49.268;12.302;2024-01-06T02:33:56;8.57;;;6.80;;
17727;SDS011;8984;49.268;12.302;2024-01-06T02:36:25;9.03;;;6.53;;
17727;SDS011;8984;49.268;12.302;2024-01-06T02:38:55;14.43;;;8.53;;
17727;SDS011;8984;49.268;12.302;2024-01-06T02:41:23;10.47;;;7.03;;
17727;SDS011;8984;49.268;12.302;2024-01-06T02:43:51;11.33;;;7.70;;
17727;SDS011;8984;49.268;12.302;2024-01-06T02:46:22;10.30;;;8.03;;
17727;SDS011;8984;49.268;12.302;2024-01-06T02:48:50;11.87;;;7.33;;
17727;SDS011;8984;49.268;12.302;2024-01-06T02:51:21;11.90;;;8.37;;
17727;SDS011;8984;49.268;12.302;2024-01-06T02:53:50;11.37;;;7.27;;
17727;SDS011;8984;49.268;12.302;2024-01-06T02:56:35;10.83;;;7.70;;
17727;SDS011;8984;49.268;12.302;2024-01-06T02:59:03;10.83;;;8.50;;
17727;SDS011;8984;49.268;12.302;2024-01-06T03:01:34;13.33;;;8.67;;
17727;SDS011;8984;49.268;12.302;2024-01-06T03:04:02;10.10;;;7.97;;
17727;SDS011;8984;49.268;12.302;2024-01-06T03:06:29;10.67;;;7.63;;
17727;SDS011;8984;49.268;12.302;2024-01-06T03:08:57;9.37;;;7.23;;
17727;SDS011;8984;49.268;12.302;2024-01-06T03:11:28;10.10;;;6.80;;
17727;SDS011;8984;49.268;12.302;2024-01-06T03:14:11;8.57;;;7.13;;
17727;SDS011;8984;49.268;12.302;2024-01-06T03:16:39;11.13;;;7.00;;
17727;SDS011;8984;49.268;12.302;2024-01-06T03:19:10;10.83;;;7.47;;
17727;SDS011;8984;49.268;12.302;2024-01-06T03:21:39;10.77;;;7.40;;
17727;SDS011;8984;49.268;12.302;2024-01-06T03:24:11;11.50;;;7.50;;
17727;SDS011;8984;49.268;12.302;2024-01-06T03:26:41;10.13;;;7.17;;
17727;SDS011;8984;49.268;12.302;2024-01-06T03:29:11;8.40;;;6.43;;
17727;SDS011;8984;49.268;12.302;2024-01-06T03:31:54;9.13;;;6.83;;
17727;SDS011;8984;49.268;12.302;2024-01-06T03:34:24;10.57;;;6.90;;
17727;SDS011;8984;49.268;12.302;2024-01-06T03:36:52;9.40;;;7.33;;
17727;SDS011;8984;49.268;12.302;2024-01-06T03:39:20;9.43;;;7.50;;
17727;SDS011;8984;49.268;12.302;2024-01-06T03:41:50;11.77;;;6.90;;
17727;SDS011;8984;49.268;12.302;2024-01-06T03:44:25;9.63;;;7.33;;
17727;SDS011;8984;49.268;12.302;2024-01-06T03:47:10;8.10;;;5.87;;
17727;SDS011;8984;49.268;12.302;2024-01-06T03:49:48;11.00;;;7.23;;
17727;SDS011;8984;49.268;12.302;2024-01-06T03:52:16;10.60;;;7.00;;
17727;SDS011;8984;49.268;12.302;2024-01-06T03:54:50;10.80;;;7.50;;
17727;SDS011;8984;49.268;12.302;2024-01-06T03:57:32;11.03;;;7.57;;
17727;SDS011;8984;49.268;12.302;2024-01-06T04:00:03;14.27;;;8.23;;
17727;SDS011;8984;49.268;12.302;2024-01-06T04:02:36;12.53;;;8.37;;
17727;SDS011;8984;49.268;12.302;2024-01-06T04:05:35;11.10;;;7.70;;
17727;SDS011;8984;49.268;12.302;2024-01-06T04:08:29;9.73;;;7.50;;
17727;SDS011;8984;49.268;12.302;2024-01-06T04:11:02;8.80;;;7.60;;
17727;SDS011;8984;49.268;12.302;2024-01-06T04:13:36;12.77;;;8.00;;
17727;SDS011;8984;49.268;12.302;2024-01-06T04:16:06;9.53;;;7.30;;
17727;SDS011;8984;49.268;12.302;2024-01-06T04:18:38;8.73;;;7.83;;
17727;SDS011;8984;49.268;12.302;2024-01-06T04:21:13;8.80;;;7.27;;
17727;SDS011;8984;49.268;12.302;2024-01-06T04:23:45;10.70;;;7.03;;
17727;SDS011;8984;49.268;12.302;2024-01-06T04:26:16;9.10;;;7.90;;
17727;SDS011;8984;49.268;12.302;2024-01-06T04:28:48;9.33;;;7.00;;
17727;SDS011;8984;49.268;12.302;2024-01-06T04:31:29;13.30;;;8.33;;
17727;SDS011;8984;49.268;12.302;2024-01-06T04:33:57;8.37;;;7.47;;
17727;SDS011;8984;49.268;12.302;2024-01-06T04:36:26;9.37;;;7.47;;
17727;SDS011;8984;49.268;12.302;2024-01-06T04:38:59;9.90;;;7.67;;
17727;SDS011;8984;49.268;12.302;2024-01-06T04:41:28;9.63;;;7.73;;
17727;SDS011;8984;49.268;12.302;2024-01-06T04:43:56;9.80;;;7.87;;
17727;SDS011;8984;49.268;12.302;2024-01-06T04:46:24;11.13;;;8.13;;
17727;SDS011;8984;49.268;12.302;2024-01-06T04:51:43;11.20;;;8.20;;
17727;SDS011;8984;49.268;12.302;2024-01-06T04:54:10;9.83;;;7.33;;
17727;SDS011;8984;49.268;12.302;2024-01-06T04:56:41;12.13;;;7.60;;
17727;SDS011;8984;49.268;12.302;2024-01-06T04:59:09;8.00;;;6.50;;
17727;SDS011;8984;49.268;12.302;2024-01-06T05:01:43;8.73;;;6.50;;
17727;SDS011;8984;49.268;12.302;2024-01-06T05:04:15;12.17;;;7.37;;
17727;SDS011;8984;49.268;12.302;2024-01-06T05:06:47;7.60;;;6.30;;
17727;SDS011;8984;49.268;12.302;2024-01-06T05:09:16;7.87;;;6.40;;
17727;SDS011;8984;49.268;12.302;2024-01-06T05:11:45;9.83;;;7.53;;
17727;SDS011;8984;49.268;12.302;2024-01-06T05:14:14;9.43;;;8.23;;
17727;SDS011;8984;49.268;12.302;2024-01-06T05:16:45;11.80;;;8.37;;
17727;SDS011;8984;49.268;12.302;2024-01-06T05:19:28;19.60;;;12.83;;
17727;SDS011;8984;49.268;12.302;2024-01-06T05:22:02;12.97;;;9.57;;
17727;SDS011;8984;49.268;12.302;2024-01-06T05:24:30;12.83;;;9.43;;
17727;SDS011;8984;49.268;12.302;2024-01-06T05:26:59;11.27;;;8.80;;
17727;SDS011;8984;49.268;12.302;2024-01-06T05:29:31;11.80;;;9.07;;
17727;SDS011;8984;49.268;12.302;2024-01-06T05:32:02;11.37;;;8.30;;
17727;SDS011;8984;49.268;12.302;2024-01-06T05:34:33;10.83;;;8.50;;
17727;SDS011;8984;49.268;12.302;2024-01-06T05:37:06;11.97;;;8.37;;
17727;SDS011;8984;49.268;12.302;2024-01-06T05:39:39;12.37;;;9.33;;
17727;SDS011;8984;49.268;12.302;2024-01-06T05:42:14;13.60;;;9.00;;
17727;SDS011;8984;49.268;12.302;2024-01-06T05:44:51;10.67;;;8.80;;
17727;SDS011;8984;49.268;12.302;2024-01-06T05:47:28;12.73;;;9.47;;
17727;SDS011;8984;49.268;12.302;2024-01-06T05:50:03;11.33;;;9.10;;
17727;SDS011;8984;49.268;12.302;2024-01-06T05:52:37;9.67;;;7.93;;
17727;SDS011;8984;49.268;12.302;2024-01-06T05:55:07;10.43;;;8.27;;
17727;SDS011;8984;49.268;12.302;2024-01-06T05:57:36;8.63;;;7.73;;
17727;SDS011;8984;49.268;12.302;2024-01-06T06:00:08;11.10;;;8.50;;
17727;SDS011;8984;49.268;12.302;2024-01-06T06:02:38;11.53;;;10.07;;
17727;SDS011;8984;49.268;12.302;2024-01-06T06:05:11;9.97;;;8.87;;
17727;SDS011;8984;49.268;12.302;2024-01-06T06:07:45;12.87;;;9.33;;
17727;SDS011;8984;49.268;12.302;2024-01-06T06:10:25;10.47;;;8.67;;
17727;SDS011;8984;49.268;12.302;2024-01-06T06:13:07;15.60;;;9.67;;
17727;SDS011;8984;49.268;12.302;2024-01-06T06:15:36;9.73;;;8.53;;
17727;SDS011;8984;49.268;12.302;2024-01-06T06:18:04;11.33;;;9.47;;
17727;SDS011;8984;49.268;12.302;2024-01-06T06:20:38;10.43;;;8.07;;
17727;SDS011;8984;49.268;12.302;2024-01-06T06:23:13;15.67;;;8.90;;
17727;SDS011;8984;49.268;12.302;2024-01-06T06:25:43;14.37;;;10.47;;
17727;SDS011;8984;49.268;12.302;2024-01-06T06:28:16;10.23;;;8.90;;
17727;SDS011;8984;49.268;12.302;2024-01-06T06:30:49;10.97;;;9.17;;
17727;SDS011;8984;49.268;12.302;2024-01-06T06:33:18;11.60;;;9.60;;
17727;SDS011;8984;49.268;12.302;2024-01-06T06:35:50;12.73;;;10.00;;
17727;SDS011;8984;49.268;12.302;2024-01-06T06:38:36;12.90;;;10.13;;
17727;SDS011;8984;49.268;12.302;2024-01-06T06:43:58;10.30;;;8.57;;
17727;SDS011;8984;49.268;12.302;2024-01-06T06:46:27;13.23;;;9.00;;
17727;SDS011;8984;49.268;12.302;2024-01-06T06:48:58;9.23;;;8.00;;
17727;SDS011;8984;49.268;12.302;2024-01-06T06:51:27;11.17;;;8.00;;
17727;SDS011;8984;49.268;12.302;2024-01-06T06:53:57;9.23;;;7.80;;
17727;SDS011;8984;49.268;12.302;2024-01-06T06:56:27;12.27;;;8.90;;
17727;SDS011;8984;49.268;12.302;2024-01-06T06:59:01;13.97;;;9.80;;
17727;SDS011;8984;49.268;12.302;2024-01-06T07:01:30;12.07;;;9.20;;
17727;SDS011;8984;49.268;12.302;2024-01-06T07:04:00;13.03;;;9.07;;
17727;SDS011;8984;49.268;12.302;2024-01-06T07:06:30;14.23;;;9.60;;
17727;SDS011;8984;49.268;12.302;2024-01-06T07:08:58;13.27;;;10.00;;
17727;SDS011;8984;49.268;12.302;2024-01-06T07:11:26;16.60;;;10.70;;
17727;SDS011;8984;49.268;12.302;2024-01-06T07:13:55;21.23;;;11.63;;
17727;SDS011;8984;49.268;12.302;2024-01-06T07:16:26;21.83;;;12.80;;
17727;SDS011;8984;49.268;12.302;2024-01-06T07:18:59;22.43;;;14.37;;
17727;SDS011;8984;49.268;12.302;2024-01-06T07:21:27;31.00;;;16.60;;
17727;SDS011;8984;49.268;12.302;2024-01-06T07:23:58;22.50;;;15.50;;
17727;SDS011;8984;49.268;12.302;2024-01-06T07:26:26;21.97;;;15.63;;
17727;SDS011;8984;49.268;12.302;2024-01-06T07:28:56;23.40;;;16.27;;
17727;SDS011;8984;49.268;12.302;2024-01-06T07:31:25;21.60;;;15.30;;
17727;SDS011;8984;49.268;12.302;2024-01-06T07:33:53;22.07;;;15.23;;
17727;SDS011;8984;49.268;12.302;2024-01-06T07:36:22;23.87;;;16.07;;
17727;SDS011;8984;49.268;12.302;2024-01-06T07:38:50;20.67;;;14.07;;
17727;SDS011;8984;49.268;12.302;2024-01-06T07:41:21;25.73;;;21.17;;
17727;SDS011;8984;49.268;12.302;2024-01-06T07:43:50;27.20;;;20.17;;
17727;SDS011;8984;49.268;12.302;2024-01-06T07:46:24;22.20;;;17.13;;
17727;SDS011;8984;49.268;12.302;2024-01-06T07:48:52;22.47;;;17.83;;
17727;SDS011;8984;49.268;12.302;2024-01-06T07:51:19;25.17;;;19.60;;
17727;SDS011;8984;49.268;12.302;2024-01-06T07:53:47;19.63;;;15.80;;
17727;SDS011;8984;49.268;12.302;2024-01-06T07:56:20;21.57;;;15.03;;
17727;SDS011;8984;49.268;12.302;2024-01-06T07:58:51;34.80;;;20.70;;
17727;SDS011;8984;49.268;12.302;2024-01-06T08:01:20;33.20;;;20.87;;
17727;SDS011;8984;49.268;12.302;2024-01-06T08:03:49;31.50;;;18.80;;
17727;SDS011;8984;49.268;12.302;2024-01-06T08:06:25;22.80;;;15.10;;
17727;SDS011;8984;49.268;12.302;2024-01-06T08:08:53;33.90;;;14.63;;
17727;SDS011;8984;49.268;12.302;2024-01-06T08:11:26;23.13;;;15.33;;
17727;SDS011;8984;49.268;12.302;2024-01-06T08:13:56;21.43;;;15.50;;
17727;SDS011;8984;49.268;12.302;2024-01-06T08:16:27;23.80;;;17.77;;
17727;SDS011;8984;49.268;12.302;2024-01-06T08:18:55;23.83;;;18.87;;
17727;SDS011;8984;49.268;12.302;2024-01-06T08:21:26;28.10;;;16.63;;
17727;SDS011;8984;49.268;12.302;2024-01-06T08:23:54;16.00;;;11.83;;
17727;SDS011;8984;49.268;12.302;2024-01-06T08:26:22;17.93;;;13.37;;
17727;SDS011;8984;49.268;12.302;2024-01-06T08:28:57;22.97;;;15.77;;
17727;SDS011;8984;49.268;12.302;2024-01-06T08:31:25;15.07;;;13.10;;
17727;SDS011;8984;49.268;12.302;2024-01-06T08:33:53;19.47;;;13.80;;
17727;SDS011;8984;49.268;12.302;2024-01-06T08:36:21;20.80;;;15.30;;
17727;SDS011;8984;49.268;12.302;2024-01-06T08:38:50;17.83;;;15.43;;
17727;SDS011;8984;49.268;12.302;2024-01-06T08:41:18;18.70;;;13.37;;
17727;SDS011;8984;49.268;12.302;2024-01-06T08:43:48;20.33;;;17.17;;
17727;SDS011;8984;49.268;12.302;2024-01-06T08:46:17;15.60;;;13.97;;
17727;SDS011;8984;49.268;12.302;2024-01-06T08:48:48;17.93;;;13.50;;
17727;SDS011;8984;49.268;12.302;2024-01-06T08:51:17;21.80;;;14.53;;
17727;SDS011;8984;49.268;12.302;2024-01-06T08:53:49;13.60;;;11.10;;
17727;SDS011;8984;49.268;12.302;2024-01-06T08:56:17;14.57;;;12.20;;
17727;SDS011;8984;49.268;12.302;2024-01-06T08:58:45;12.50;;;10.90;;
17727;SDS011;8984;49.268;12.302;2024-01-06T09:01:13;12.70;;;10.90;;
17727;SDS011;8984;49.268;12.302;2024-01-06T09:03:42;13.73;;;11.37;;
17727;SDS011;8984;49.268;12.302;2024-01-06T09:06:11;13.17;;;10.90;;
17727;SDS011;8984;49.268;12.302;2024-01-06T09:08:43;14.63;;;11.87;;
17727;SDS011;8984;49.268;12.302;2024-01-06T09:11:12;14.53;;;11.97;;
17727;SDS011;8984;49.268;12.302;2024-01-06T09:13:51;14.30;;;12.27;;
17727;SDS011;8984;49.268;12.302;2024-01-06T09:16:19;21.77;;;15.67;;
17727;SDS011;8984;49.268;12.302;2024-01-06T09:18:50;23.17;;;17.87;;
17727;SDS011;8984;49.268;12.302;2024-01-06T09:21:18;15.63;;;12.10;;
17727;SDS011;8984;49.268;12.302;2024-01-06T09:23:46;19.17;;;13.03;;
17727;SDS011;8984;49.268;12.302;2024-01-06T09:26:14;16.83;;;13.23;;
17727;SDS011;8984;49.268;12.302;2024-01-06T09:28:43;13.07;;;11.30;;
17727;SDS011;8984;49.268;12.302;2024-01-06T09:31:25;13.87;;;11.30;;
17727;SDS011;8984;49.268;12.302;2024-01-06T09:33:55;13.03;;;10.37;;
17727;SDS011;8984;49.268;12.302;2024-01-06T09:36:23;16.57;;;11.73;;
17727;SDS011;8984;49.268;12.302;2024-01-06T09:39:05;16.13;;;13.00;;
17727;SDS011;8984;49.268;12.302;2024-01-06T09:41:34;14.33;;;11.77;;
17727;SDS011;8984;49.268;12.302;2024-01-06T09:44:03;13.33;;;11.70;;
17727;SDS011;8984;49.268;12.302;2024-01-06T09:46:31;18.47;;;13.00;;
17727;SDS011;8984;49.268;12.302;2024-01-06T09:49:06;13.97;;;10.97;;
17727;SDS011;8984;49.268;12.302;2024-01-06T09:51:35;16.30;;;13.00;;
17727;SDS011;8984;49.268;12.302;2024-01-06T09:54:09;15.27;;;12.27;;
17727;SDS011;8984;49.268;12.302;2024-01-06T09:56:51;15.03;;;12.13;;
17727;SDS011;8984;49.268;12.302;2024-01-06T09:59:21;16.77;;;13.20;;
17727;SDS011;8984;49.268;12.302;2024-01-06T10:01:50;17.50;;;13.60;;
17727;SDS011;8984;49.268;12.302;2024-01-06T10:04:22;14.33;;;12.20;;
17727;SDS011;8984;49.268;12.302;2024-01-06T10:06:51;16.53;;;13.87;;
17727;SDS011;8984;49.268;12.302;2024-01-06T10:09:25;16.73;;;14.27;;
17727;SDS011;8984;49.268;12.302;2024-01-06T10:11:55;16.53;;;12.97;;
17727;SDS011;8984;49.268;12.302;2024-01-06T10:14:28;15.93;;;13.07;;
17727;SDS011;8984;49.268;12.302;2024-01-06T10:16:56;15.33;;;12.43;;
17727;SDS011;8984;49.268;12.302;2024-01-06T10:19:30;18.23;;;14.40;;
17727;SDS011;8984;49.268;12.302;2024-01-06T10:21:58;18.77;;;13.33;;
17727;SDS011;8984;49.268;12.302;2024-01-06T10:24:31;13.37;;;11.17;;
17727;SDS011;8984;49.268;12.302;2024-01-06T10:26:59;13.43;;;10.80;;
17727;SDS011;8984;49.268;12.302;2024-01-06T10:29:32;14.97;;;12.60;;
17727;SDS011;8984;49.268;12.302;2024-01-06T10:32:01;14.10;;;11.87;;
17727;SDS011;8984;49.268;12.302;2024-01-06T10:34:37;16.67;;;12.30;;
17727;SDS011;8984;49.268;12.302;2024-01-06T10:37:05;14.37;;;11.80;;
17727;SDS011;8984;49.268;12.302;2024-01-06T10:39:37;13.87;;;10.63;;
17727;SDS011;8984;49.268;12.302;2024-01-06T10:42:06;12.03;;;9.80;;
17727;SDS011;8984;49.268;12.302;2024-01-06T10:44:35;13.53;;;10.27;;
17727;SDS011;8984;49.268;12.302;2024-01-06T10:47:10;16.70;;;13.00;;
17727;SDS011;8984;49.268;12.302;2024-01-06T10:49:44;11.33;;;9.83;;
17727;SDS011;8984;49.268;12.302;2024-01-06T10:52:19;16.83;;;14.57;;
17727;SDS011;8984;49.268;12.302;2024-01-06T10:54:50;14.07;;;11.17;;
17727;SDS011;8984;49.268;12.302;2024-01-06T10:57:20;17.47;;;13.33;;
17727;SDS011;8984;49.268;12.302;2024-01-06T10:59:53;15.03;;;10.73;;
17727;SDS011;8984;49.268;12.302;2024-01-06T11:02:27;18.00;;;10.63;;
17727;SDS011;8984;49.268;12.302;2024-01-06T11:05:19;12.97;;;10.17;;
17727;SDS011;8984;49.268;12.302;2024-01-06T11:07:48;16.00;;;10.90;;
17727;SDS011;8984;49.268;12.302;2024-01-06T11:10:21;13.23;;;9.67;;
17727;SDS011;8984;49.268;12.302;2024-01-06T11:15:43;13.03;;;10.47;;
17727;SDS011;8984;49.268;12.302;2024-01-06T11:18:30;12.53;;;10.50;;
17727;SDS011;8984;49.268;12.302;2024-01-06T11:21:16;14.97;;;11.30;;
17727;SDS011;8984;49.268;12.302;2024-01-06T11:26:45;16.17;;;10.77;;
17727;SDS011;8984;49.268;12.302;2024-01-06T11:29:20;15.23;;;11.00;;
17727;SDS011;8984;49.268;12.302;2024-01-06T11:32:25;13.70;;;10.47;;
17727;SDS011;8984;49.268;12.302;2024-01-06T11:35:05;16.27;;;10.87;;
17727;SDS011;8984;49.268;12.302;2024-01-06T11:37:36;24.40;;;18.50;;
17727;SDS011;8984;49.268;12.302;2024-01-06T11:40:22;13.97;;;11.03;;
17727;SDS011;8984;49.268;12.302;2024-01-06T11:43:01;15.60;;;12.10;;
17727;SDS011;8984;49.268;12.302;2024-01-06T11:45:30;15.10;;;10.13;;
17727;SDS011;8984;49.268;12.302;2024-01-06T11:47:58;13.80;;;10.57;;
17727;SDS011;8984;49.268;12.302;2024-01-06T11:50:27;11.93;;;9.90;;
17727;SDS011;8984;49.268;12.302;2024-01-06T11:52:56;13.63;;;10.43;;
17727;SDS011;8984;49.268;12.302;2024-01-06T11:55:24;15.43;;;10.70;;
17727;SDS011;8984;49.268;12.302;2024-01-06T11:57:53;14.80;;;9.77;;
17727;SDS011;8984;49.268;12.302;2024-01-06T12:00:19;14.23;;;10.90;;
17727;SDS011;8984;49.268;12.302;2024-01-06T12:02:46;17.57;;;11.10;;
17727;SDS011;8984;49.268;12.302;2024-01-06T12:05:13;14.90;;;10.70;;
17727;SDS011;8984;49.268;12.302;2024-01-06T12:07:43;15.17;;;10.33;;
17727;SDS011;8984;49.268;12.302;2024-01-06T12:10:21;11.00;;;8.77;;
17727;SDS011;8984;49.268;12.302;2024-01-06T12:12:54;13.27;;;9.73;;
17727;SDS011;8984;49.268;12.302;2024-01-06T12:15:25;13.87;;;11.00;;
17727;SDS011;8984;49.268;12.302;2024-01-06T12:17:52;14.70;;;10.20;;
17727;SDS011;8984;49.268;12.302;2024-01-06T12:20:18;16.50;;;10.63;;
17727;SDS011;8984;49.268;12.302;2024-01-06T12:22:45;12.60;;;9.77;;
17727;SDS011;8984;49.268;12.302;2024-01-06T12:25:12;11.57;;;9.43;;
17727;SDS011;8984;49.268;12.302;2024-01-06T12:27:43;14.47;;;10.20;;
17727;SDS011;8984;49.268;12.302;2024-01-06T12:30:13;14.33;;;10.40;;
17727;SDS011;8984;49.268;12.302;2024-01-06T12:32:43;14.40;;;10.63;;
17727;SDS011;8984;49.268;12.302;2024-01-06T12:35:11;17.77;;;11.37;;
17727;SDS011;8984;49.268;12.302;2024-01-06T12:37:37;16.73;;;10.10;;
17727;SDS011;8984;49.268;12.302;2024-01-06T12:40:05;13.63;;;8.90;;
17727;SDS011;8984;49.268;12.302;2024-01-06T12:42:34;15.47;;;10.33;;
17727;SDS011;8984;49.268;12.302;2024-01-06T12:45:02;15.33;;;10.10;;
17727;SDS011;8984;49.268;12.302;2024-01-06T12:47:30;12.70;;;9.20;;
17727;SDS011;8984;49.268;12.302;2024-01-06T12:49:57;14.07;;;9.70;;
17727;SDS011;8984;49.268;12.302;2024-01-06T12:52:24;14.50;;;10.20;;
17727;SDS011;8984;49.268;12.302;2024-01-06T12:54:50;12.63;;;9.13;;
17727;SDS011;8984;49.268;12.302;2024-01-06T12:57:18;12.93;;;9.03;;
17727;SDS011;8984;49.268;12.302;2024-01-06T12:59:45;13.23;;;9.73;;
17727;SDS011;8984;49.268;12.302;2024-01-06T13:02:13;14.27;;;9.80;;
17727;SDS011;8984;49.268;12.302;2024-01-06T13:04:40;12.70;;;9.53;;
17727;SDS011;8984;49.268;12.302;2024-01-06T13:07:06;19.47;;;11.13;;
17727;SDS011;8984;49.268;12.302;2024-01-06T13:09:33;14.20;;;10.47;;
17727;SDS011;8984;49.268;12.302;2024-01-06T13:12:00;15.17;;;10.40;;
17727;SDS011;8984;49.268;12.302;2024-01-06T13:14:27;28.17;;;22.23;;
17727;SDS011;8984;49.268;12.302;2024-01-06T13:16:55;16.77;;;11.20;;
17727;SDS011;8984;49.268;12.302;2024-01-06T13:19:23;18.37;;;16.03;;
17727;SDS011;8984;49.268;12.302;2024-01-06T13:21:52;14.37;;;10.10;;
17727;SDS011;8984;49.268;12.302;2024-01-06T13:24:18;17.93;;;12.30;;
17727;SDS011;8984;49.268;12.302;2024-01-06T13:26:45;13.40;;;9.20;;
17727;SDS011;8984;49.268;12.302;2024-01-06T13:29:13;14.77;;;12.23;;
17727;SDS011;8984;49.268;12.302;2024-01-06T13:31:40;13.13;;;10.27;;
17727;SDS011;8984;49.268;12.302;2024-01-06T13:34:06;15.17;;;11.03;;
17727;SDS011;8984;49.268;12.302;2024-01-06T13:36:35;17.10;;;9.80;;
17727;SDS011;8984;49.268;12.302;2024-01-06T13:39:02;18.13;;;11.83;;
17727;SDS011;8984;49.268;12.302;2024-01-06T13:41:29;13.53;;;8.70;;
17727;SDS011;8984;49.268;12.302;2024-01-06T13:43:56;18.13;;;11.77;;
17727;SDS011;8984;49.268;12.302;2024-01-06T13:46:23;14.63;;;8.97;;
17727;SDS011;8984;49.268;12.302;2024-01-06T13:48:50;13.03;;;9.77;;
17727;SDS011;8984;49.268;12.302;2024-01-06T13:51:16;9.57;;;6.80;;
17727;SDS011;8984;49.268;12.302;2024-01-06T13:53:44;15.60;;;9.57;;
17727;SDS011;8984;49.268;12.302;2024-01-06T13:56:11;9.13;;;6.67;;
17727;SDS011;8984;49.268;12.302;2024-01-06T13:58:38;10.33;;;8.27;;
17727;SDS011;8984;49.268;12.302;2024-01-06T14:01:05;9.43;;;7.10;;
17727;SDS011;8984;49.268;12.302;2024-01-06T14:03:35;15.10;;;11.10;;
17727;SDS011;8984;49.268;12.302;2024-01-06T14:06:02;9.13;;;5.63;;
17727;SDS011;8984;49.268;12.302;2024-01-06T14:08:31;9.47;;;6.13;;
17727;SDS011;8984;49.268;12.302;2024-01-06T14:10:59;8.03;;;6.57;;
17727;SDS011;8984;49.268;12.302;2024-01-06T14:13:26;8.10;;;5.87;;
17727;SDS011;8984;49.268;12.302;2024-01-06T14:15:52;8.93;;;5.77;;
17727;SDS011;8984;49.268;12.302;2024-01-06T14:18:19;11.20;;;7.27;;
17727;SDS011;8984;49.268;12.302;2024-01-06T14:20:46;8.03;;;5.23;;
17727;SDS011;8984;49.268;12.302;2024-01-06T14:23:13;9.57;;;6.43;;
17727;SDS011;8984;49.268;12.302;2024-01-06T14:25:40;11.10;;;6.37;;
17727;SDS011;8984;49.268;12.302;2024-01-06T14:28:08;10.67;;;7.10;;
17727;SDS011;8984;49.268;12.302;2024-01-06T14:30:35;8.93;;;6.60;;
17727;SDS011;8984;49.268;12.302;2024-01-06T14:33:02;11.47;;;7.80;;
17727;SDS011;8984;49.268;12.302;2024-01-06T14:35:29;9.30;;;7.00;;
17727;SDS011;8984;49.268;12.302;2024-01-06T14:37:55;9.37;;;6.83;;
17727;SDS011;8984;49.268;12.302;2024-01-06T14:40:22;13.10;;;7.50;;
17727;SDS011;8984;49.268;12.302;2024-01-06T14:42:49;13.77;;;8.73;;
17727;SDS011;8984;49.268;12.302;2024-01-06T14:45:17;12.63;;;7.37;;
17727;SDS011;8984;49.268;12.302;2024-01-06T14:47:44;12.57;;;9.17;;
17727;SDS011;8984;49.268;12.302;2024-01-06T14:50:12;14.00;;;8.10;;
17727;SDS011;8984;49.268;12.302;2024-01-06T14:52:39;12.17;;;9.63;;
17727;SDS011;8984;49.268;12.302;2024-01-06T14:55:05;12.83;;;8.03;;
17727;SDS011;8984;49.268;12.302;2024-01-06T14:57:33;11.70;;;8.80;;
17727;SDS011;8984;49.268;12.302;2024-01-06T14:59:59;10.97;;;8.13;;
17727;SDS011;8984;49.268;12.302;2024-01-06T15:02:28;14.77;;;10.73;;
17727;SDS011;8984;49.268;12.302;2024-01-06T15:04:54;14.90;;;9.33;;
17727;SDS011;8984;49.268;12.302;2024-01-06T15:07:22;11.20;;;8.70;;